• Join FlightAware (Why Join?)
  • Login
  • US Flag 
09:33PM EDT


 

Airport Tracker/Info


-or-


 

Live Flight TrackerFlight Track Log ✈ AAL21 ✈ 09-Jul-2013 ✈ KJFK - KLAX

Flight Track Log - Related Links

Times and Time Zones

All times are in EDT time to prevent confusion due to time zone crossing. See the AAL21 flight status page for this flight to view local times or setup timezone preferences in your user account.

Time Position Orientation Groundspeed Altitude Reporting Facility
EDT Latitude Longitude Course Direction KTS MPH feet Rate Location/Type
10:15PM 40.6500 -73.8333 270° West 165 190 1,400  Level New York TRACON
10:16PM 40.6000 -73.9000 225° Southwest 216 249 3,000 1,920 Climbing New York TRACON
10:17PM 40.4170 -74.1326 237° Southwest  Level FlightAware Approximate
10:17PM 40.5500 -73.9500 217° Southwest 256 295 5,500  Level New York TRACON
10:18PM 40.3376 -74.2485 232° Southwest  Level FlightAware Approximate
10:18PM 40.4833 -74.0000 210° Southwest 267 307 8,400  Level New York TRACON
10:19PM 40.2633 -74.3700 217° Southwest  Level FlightAware Approximate
10:19PM 40.4167 -74.0667 217° Southwest 285 328 10,900  Level New York TRACON
10:20PM 40.2000 -74.4933 270° West  Level FlightAware Approximate
10:20PM 40.3711 -74.1653 239° Southwest 353 406 11,700  Level New York Center
10:21PM 40.3181 -74.2661 235° Southwest 363 418 14,000 2,340 Climbing New York Center
10:22PM 40.2828 -74.4058 252° West 373 429 16,400 2,160 Climbing New York Center
10:23PM 40.2656 -74.5492 261° West 397 457 18,300 1,740 Climbing New York Center
10:24PM 40.2511 -74.6789 262° West 403 464 19,900 1,620 Climbing New York Center
10:25PM 40.2333 -74.8275 261° West 415 478 21,600 1,620 Climbing New York Center
10:26PM 40.2156 -74.9814 261° West 421 484 23,300 2,100 Climbing New York Center
10:27PM 40.1994 -75.1353 262° West 428 493 25,800 2,700 Climbing New York Center
10:28PM 40.1817 -75.2781 261° West 420 483 28,700 2,040 Climbing New York Center
10:29PM 40.1681 -75.4158 263° West 405 466 30,000 900 Climbing New York Center
10:30PM 40.1494 -75.5639 261° West 405 466 30,500 540 Climbing New York Center
10:31PM 40.1306 -75.7175 261° West 417 480 31,100 900 Climbing New York Center
10:32PM 40.1081 -75.9031 261° West 460 529 32,400 1,260 Climbing New York Center
10:33PM 40.0825 -76.0614 258° West 466 536 33,600 1,020 Climbing New York Center
10:34PM 40.0253 -76.2169 244° Southwest 474 545 34,500 840 Climbing New York Center
10:35PM 39.9658 -76.3722 243° Southwest 479 551 35,300 720 Climbing New York Center
10:36PM 39.9064 -76.5269 243° Southwest 484 557 36,000 300 Climbing New York Center
10:36PM 39.8633 -76.6294 241° Southwest 483 556 35,900 -60 Descending Washington Center
10:37PM 39.7994 -76.7878 242° Southwest 505 581 35,900  Level Washington Center
10:38PM 39.7394 -76.9433 243° Southwest 505 581 36,000  Climbing Washington Center
10:39PM 39.6772 -77.0986 243° Southwest 494 568 35,900 -60 Descending Washington Center
10:40PM 39.6231 -77.2431 244° Southwest 494 568 35,900  Level Washington Center
10:41PM 39.5628 -77.3950 243° Southwest 488 562 35,900  Level Washington Center
10:42PM 39.5019 -77.5522 243° Southwest 488 562 35,900  Level Washington Center
10:43PM 39.4408 -77.7092 243° Southwest 488 562 35,900  Level Washington Center
10:44PM 39.3797 -77.8603 242° Southwest 488 562 35,900  Level Washington Center
10:45PM 39.3206 -78.0142 244° Southwest 488 562 35,900  Level Washington Center
10:46PM 39.2589 -78.1675 243° Southwest 488 562 35,900  Level Washington Center
10:47PM 39.1994 -78.3156 243° Southwest 482 555 35,900  Level Washington Center
10:48PM 39.1397 -78.4631 242° Southwest 482 555 35,900  Level Washington Center
10:49PM 39.0819 -78.6133 244° Southwest 477 549 35,900  Level Washington Center
10:50PM 39.0217 -78.7606 242° Southwest 472 543 35,900  Level Washington Center
10:51PM 38.9617 -78.9072 242° Southwest 467 537 35,900  Level Washington Center
10:52PM 38.9011 -79.0539 242° Southwest 467 537 35,900  Level Washington Center
10:53PM 38.8425 -79.2031 243° Southwest 467 537 35,900  Level Washington Center
10:54PM 38.7853 -79.3708 246° West 467 537 35,900  Level Washington Center
10:55PM 38.7306 -79.5197 245° Southwest 462 532 36,000  Climbing Washington Center
10:56PM 38.6800 -79.6553 244° Southwest 462 532 35,900 -60 Descending Washington Center
10:57PM 38.6189 -79.7981 241° Southwest 462 532 35,900  Level Washington Center
10:58PM 38.5572 -79.9433 242° Southwest 462 532 36,000  Climbing Washington Center
10:59PM 38.4867 -80.1089 241° Southwest 468 539 35,900  Descending Washington Center
11:02PM 38.3411 -80.4133 239° Southwest 477 549 36,000 240 Climbing Indianapolis Center
11:03PM 38.2922 -80.5597 247° West 480 552 36,800 600 Climbing Indianapolis Center
11:04PM 38.2594 -80.7203 255° West 470 541 37,300 480 Climbing Indianapolis Center
11:05PM 38.2253 -80.8828 255° West 472 543 37,900 240 Climbing Indianapolis Center
11:06PM 38.1922 -81.0483 256° West 479 551 37,900  Level Indianapolis Center
11:07PM 38.1569 -81.2150 255° West 485 558 37,900  Level Indianapolis Center
11:08PM 38.1228 -81.3797 255° West 481 554 37,900  Level Indianapolis Center
11:09PM 38.0917 -81.5444 257° West 477 549 37,900  Level Indianapolis Center
11:10PM 38.0575 -81.7083 255° West 478 550 37,900  Level Indianapolis Center
11:11PM 38.0222 -81.8722 255° West 480 552 37,900  Level Indianapolis Center
11:12PM 37.9797 -82.0700 255° West 482 555 37,900  Level Indianapolis Center
11:13PM 37.9444 -82.2344 255° West 479 551 37,900  Level Indianapolis Center
11:14PM 37.9081 -82.3961 254° West 480 552 37,900  Level Indianapolis Center
11:15PM 37.8719 -82.5578 254° West 479 551 37,900  Level Indianapolis Center
11:16PM 37.8358 -82.7203 254° West 480 552 37,900  Level Indianapolis Center
11:17PM 37.7997 -82.8811 254° West 478 550 37,900  Level Indianapolis Center
11:18PM 37.7622 -83.0444 254° West 483 556 37,900  Level Indianapolis Center
11:19PM 37.7264 -83.2069 254° West 482 555 37,900  Level Indianapolis Center
11:20PM 37.6828 -83.3936 254° West 476 548 37,900  Level Indianapolis Center
11:21PM 37.6456 -83.5522 254° West 473 544 37,900  Level Indianapolis Center
11:22PM 37.6083 -83.7117 254° West 476 548 37,900  Level Indianapolis Center
11:23PM 37.5714 -83.8711 254° West 475 547 37,900  Level Indianapolis Center
11:24PM 37.5344 -84.0300 254° West 474 545 37,900  Level Indianapolis Center
11:25PM 37.4964 -84.1892 253° West 474 545 37,900  Level Indianapolis Center
11:26PM 37.4586 -84.3483 253° West 475 547 38,000  Climbing Indianapolis Center
11:27PM 37.4128 -84.5333 253° West 475 547 37,900 -60 Descending Indianapolis Center
11:28PM 37.3744 -84.6931 253° West 478 550 37,900  Level Indianapolis Center
11:29PM 37.3339 -84.8522 252° West 480 552 37,900  Level Indianapolis Center
11:30PM 37.2950 -85.0122 253° West 479 551 37,900  Level Indianapolis Center
11:31PM 37.2553 -85.1728 253° West 481 554 37,900  Level Indianapolis Center
11:32PM 37.2153 -85.3336 253° West 482 555 37,900  Level Indianapolis Center
11:33PM 37.1742 -85.4942 252° West 482 555 37,900  Level Indianapolis Center
11:34PM 37.1333 -85.6594 253° West 485 558 37,900  Level Indianapolis Center
11:35PM 37.0922 -85.8192 252° West 481 554 37,900  Level Indianapolis Center
11:36PM 37.0517 -85.9789 252° West 479 551 37,900  Level Indianapolis Center
11:37PM 37.0108 -86.1383 252° West 478 550 37,900  Level Indianapolis Center
11:38PM 36.9644 -86.3231 253° West 476 548 37,900  Level Indianapolis Center
11:40PM 36.9117 -86.5064 250° West 482 555 37,900  Level Memphis Center
11:41PM 36.8578 -86.6567 246° West 482 555 37,900  Level Memphis Center
11:42PM 36.8039 -86.8094 246° West 482 555 37,900  Level Memphis Center
11:43PM 36.7478 -86.9622 245° Southwest 487 560 37,900  Level Memphis Center
11:44PM 36.6936 -87.1147 246° West 487 560 37,900  Level Memphis Center
11:45PM 36.6428 -87.2486 245° Southwest 482 555 37,900  Level Memphis Center
11:46PM 36.5803 -87.4164 245° Southwest 487 560 37,900  Level Memphis Center
11:47PM 36.5311 -87.5472 245° Southwest 487 560 37,900  Level Memphis Center
11:48PM 36.4739 -87.6964 245° Southwest 487 560 37,900  Level Memphis Center
11:49PM 36.4167 -87.8425 244° Southwest 482 555 37,900  Level Memphis Center
11:50PM 36.3592 -87.9939 245° Southwest 475 547 37,900  Level Memphis Center
11:51PM 36.3094 -88.1267 245° Southwest 480 552 38,000  Climbing Memphis Center
11:52PM 36.2517 -88.2828 245° Southwest 467 537 37,900 -60 Descending Memphis Center
11:53PM 36.1956 -88.4306 245° Southwest 467 537 37,900  Level Memphis Center
11:54PM 36.1375 -88.5786 244° Southwest 473 544 37,900  Level Memphis Center
11:55PM 36.0811 -88.7236 244° Southwest 468 539 38,000  Climbing Memphis Center
11:56PM 36.0225 -88.8736 244° Southwest 468 539 37,900 -60 Descending Memphis Center
11:57PM 35.9658 -89.0208 245° Southwest 474 545 37,900  Level Memphis Center
11:58PM 35.9069 -89.1706 244° Southwest 474 545 37,900  Level Memphis Center
11:59PM 35.8497 -89.3172 244° Southwest 474 545 37,900  Level Memphis Center
12:00AM 35.7906 -89.4639 244° Southwest 474 545 37,900  Level Memphis Center
12:01AM 35.7350 -89.6103 245° Southwest 474 545 37,900  Level Memphis Center
12:02AM 35.6775 -89.7692 246° West 464 534 37,900  Level Memphis Center
12:03AM 35.6197 -89.9153 244° Southwest 464 534 37,900  Level Memphis Center
12:04AM 35.5619 -90.0608 244° Southwest 469 540 37,900  Level Memphis Center
12:05AM 35.5183 -90.2117 250° West 469 540 37,900  Level Memphis Center
12:06AM 35.5206 -90.3750 271° West 473 544 37,900  Level Memphis Center
12:07AM 35.5286 -90.5356 274° West 473 544 37,900  Level Memphis Center
12:08AM 35.5367 -90.6939 274° West 481 554 37,900  Level Memphis Center
12:09AM 35.5406 -90.8417 272° West 476 548 37,900  Level Memphis Center
12:10AM 35.5461 -91.0000 273° West 476 548 37,900  Level Memphis Center
12:11AM 35.5533 -91.1583 273° West 476 548 37,900  Level Memphis Center
12:12AM 35.5586 -91.3192 272° West 476 548 37,900  Level Memphis Center
12:13AM 35.5656 -91.4928 273° West 476 548 37,900  Level Memphis Center
12:14AM 35.5722 -91.6536 273° West 476 548 38,000  Climbing Memphis Center
12:15AM 35.5789 -91.8172 273° West 476 548 37,900 -60 Descending Memphis Center
12:16AM 35.5850 -91.9781 273° West 476 548 37,900  Level Memphis Center
12:17AM 35.5892 -92.1389 272° West 481 554 37,900  Level Memphis Center
12:18AM 35.5950 -92.3000 273° West 475 547 37,900  Level Memphis Center
12:19AM 35.6008 -92.4611 273° West 475 547 37,900  Level Memphis Center
12:20AM 35.6064 -92.6194 273° West 475 547 37,900  Level Memphis Center
12:21AM 35.6117 -92.7881 272° West 482 555 37,900  Level Memphis Center
12:22AM 35.6189 -92.9467 273° West 481 554 38,000  Climbing Memphis Center
12:23AM 35.6217 -93.1050 271° West 475 547 37,900 -60 Descending Memphis Center
12:24AM 35.6286 -93.2611 273° West 475 547 37,900  Level Memphis Center
12:25AM 35.6292 -93.4144 270° West 462 532 37,900  Level Memphis Center
12:26AM 35.6336 -93.5703 272° West 462 532 37,900  Level Memphis Center
12:27AM 35.6381 -93.7136 272° West 468 539 38,000  Climbing Memphis Center
12:28AM 35.6442 -93.8722 273° West 468 539 37,900 -60 Descending Memphis Center
12:29AM 35.6461 -94.0256 271° West 463 533 37,900  Level Memphis Center
12:30AM 35.6492 -94.1994 271° West 458 527 37,900  Level Memphis Center
12:31AM 35.6525 -94.3553 272° West 463 533 37,900  Level Memphis Center
12:32AM 35.6578 -94.5089 272° West 463 533 37,900  Level Memphis Center
12:33AM 35.6589 -94.6622 271° West 463 533 37,900  Level Memphis Center
12:34AM 35.6625 -94.9050 271° West 450 518 37,900  Level Kansas City Center
12:35AM 35.6639 -95.0606 271° West 453 521 38,000  Climbing Kansas City Center
12:36AM 35.6678 -95.2122 272° West 445 512 37,900  Descending Kansas City Center
12:37AM 35.6689 -95.3664 271° West 448 516 38,000  Climbing Kansas City Center
12:38AM 35.6700 -95.5242 271° West 455 524 37,900  Descending Kansas City Center
12:39AM 35.6714 -95.6814 271° West 456 525 38,000  Climbing Kansas City Center
12:40AM 35.6722 -95.8383 270° West 457 526 37,900 -60 Descending Kansas City Center
12:41AM 35.6719 -95.9914 270° West 451 519 37,900  Level Kansas City Center
12:42AM 35.6728 -96.1442 270° West 453 521 37,900  Level Kansas City Center
12:43AM 35.6722 -96.2997 270° West 455 524 37,900  Level Kansas City Center
12:44AM 35.6731 -96.4856 270° West 455 524 37,900  Level Kansas City Center
12:45AM 35.6733 -96.6417 270° West 457 526 37,900  Level Kansas City Center
12:46AM 35.6739 -96.7964 270° West 456 525 37,900  Level Kansas City Center
12:47AM 35.6742 -96.9519 270° West 458 527 37,900  Level Kansas City Center
12:48AM 35.6750 -97.1067 270° West 457 526 37,900  Level Kansas City Center
12:49AM 35.6753 -97.2619 270° West 458 527 38,000  Climbing Kansas City Center
12:50AM 35.6742 -97.4192 270° West 464 534 38,000 -60 Level Kansas City Center
12:51AM 35.6725 -97.5767 269° West 467 537 37,900 -60 Descending Kansas City Center
12:52AM 35.6697 -97.7344 269° West 468 539 37,900  Level Kansas City Center
12:53AM 35.6669 -97.9236 269° West 466 536 37,900  Level Kansas City Center
12:54AM 35.6642 -98.0817 269° West 465 535 37,900  Level Kansas City Center
12:55AM 35.6614 -98.2383 269° West 463 533 37,900  Level Kansas City Center
12:57AM 35.6589 -98.3769 269° West 461 531 37,900  Level Kansas City Center
12:58AM 35.6542 -98.5347 268° West 459 528 37,900  Level Kansas City Center
12:59AM 35.6517 -98.6931 269° West 461 531 38,000  Climbing Kansas City Center
01:00AM 35.6481 -98.8839 269° West 461 531 37,900  Descending Kansas City Center
01:01AM 35.6444 -99.0442 268° West 462 532 38,000  Climbing Kansas City Center
01:02AM 35.6406 -99.2050 268° West 464 534 37,900 -60 Descending Kansas City Center
01:03AM 35.6339 -99.4944 268° West 467 537 37,900  Level Albuquerque Center
01:04AM 35.6308 -99.6547 269° West 466 536 37,900  Level Albuquerque Center
01:05AM 35.6275 -99.8119 269° West 462 532 37,900  Level Albuquerque Center
01:06AM 35.6231 -99.9672 268° West 455 524 37,900  Level Albuquerque Center
01:08AM 35.6183 -100.1219 268° West 452 520 37,900  Level Albuquerque Center
01:09AM 35.6125 -100.2767 267° West 452 520 37,900  Level Albuquerque Center
01:10AM 35.6072 -100.4300 268° West 450 518 38,000  Climbing Albuquerque Center
01:11AM 35.6025 -100.5842 268° West 450 518 37,900  Descending Albuquerque Center
01:12AM 35.5969 -100.7525 268° West 456 525 38,000  Climbing Albuquerque Center
01:13AM 35.5897 -100.9086 267° West 458 527 38,000  Level Albuquerque Center
01:14AM 35.5842 -101.0650 268° West 460 529 38,000  Level Albuquerque Center
01:15AM 35.5783 -101.2203 267° West 459 528 38,000  Level Albuquerque Center
01:16AM 35.5714 -101.3756 267° West 460 529 38,000 -60 Level Albuquerque Center
01:17AM 35.5647 -101.5322 267° West 463 533 37,900 -60 Descending Albuquerque Center
01:18AM 35.5581 -101.6858 267° West 459 528 37,900  Level Albuquerque Center
01:19AM 35.5508 -101.8394 267° West 457 526 38,000  Climbing Albuquerque Center
01:20AM 35.5414 -101.9933 266° West 458 527 38,000  Level Albuquerque Center
01:21AM 35.5333 -102.1783 267° West 457 526 38,000  Level Albuquerque Center
01:22AM 35.5242 -102.3297 266° West 451 519 38,000  Level Albuquerque Center
01:23AM 35.5158 -102.4839 266° West 454 522 38,000  Level Albuquerque Center
01:24AM 35.5094 -102.6322 267° West 452 520 38,000  Level Albuquerque Center
01:25AM 35.5003 -102.7858 266° West 449 517 38,000  Level Albuquerque Center
01:26AM 35.4939 -102.9389 267° West 447 514 38,000  Level Albuquerque Center
01:27AM 35.4842 -103.0925 266° West 448 516 38,000  Level Albuquerque Center
01:28AM 35.4767 -103.2469 267° West 449 517 38,000  Level Albuquerque Center
01:29AM 35.4675 -103.4011 266° West 450 518 38,000  Level Albuquerque Center
01:30AM 35.4606 -103.5561 267° West 452 520 38,000  Level Albuquerque Center
01:31AM 35.4525 -103.7114 266° West 454 522 38,000  Level Albuquerque Center
01:32AM 35.4428 -103.8661 266° West 453 521 38,000  Level Albuquerque Center
01:33AM 35.4339 -104.0208 266° West 455 524 38,000  Level Albuquerque Center
01:34AM 35.4253 -104.1761 266° West 458 527 38,000  Level Albuquerque Center
01:35AM 35.4133 -104.3314 265° West 461 531 38,000  Level Albuquerque Center
01:36AM 35.4022 -104.4861 265° West 459 528 38,000  Level Albuquerque Center
01:37AM 35.3908 -104.6422 265° West 459 528 38,000  Level Albuquerque Center
01:38AM 35.3803 -104.7981 265° West 458 527 38,000  Level Albuquerque Center
01:39AM 35.3697 -104.9556 265° West 461 531 38,000  Level Albuquerque Center
01:40AM 35.3594 -105.1119 265° West 458 527 38,000  Level Albuquerque Center
01:41AM 35.3467 -105.2686 264° West 458 527 38,000  Level Albuquerque Center
01:42AM 35.3353 -105.4261 265° West 460 529 38,000  Level Albuquerque Center
01:43AM 35.3192 -105.6364 265° West 462 532 38,000  Level Albuquerque Center
01:44AM 35.3061 -105.7942 264° West 462 532 38,000  Level Albuquerque Center
01:45AM 35.2964 -105.9258 265° West 464 534 38,000  Level Albuquerque Center
01:46AM 35.2842 -106.0844 265° West 465 535 38,000 -60 Level Albuquerque Center
01:47AM 35.2719 -106.2439 265° West 463 533 37,900 -60 Descending Albuquerque Center
01:48AM 35.2600 -106.4008 265° West 465 535 37,900  Level Albuquerque Center
01:49AM 35.2461 -106.5769 265° West 465 535 37,900  Level Albuquerque Center
01:50AM 35.2336 -106.7269 264° West 464 534 38,000  Climbing Albuquerque Center
01:51AM 35.2200 -106.8772 264° West 464 534 37,900  Descending Albuquerque Center
01:52AM 35.2042 -107.0533 264° West 464 534 38,000  Climbing Albuquerque Center
01:53AM 35.1906 -107.2075 264° West 467 537 37,900 -60 Descending Albuquerque Center
01:54AM 35.1758 -107.3647 264° West 471 542 37,900  Level Albuquerque Center
01:55AM 35.1611 -107.5322 264° West 465 535 37,900  Level Albuquerque Center
01:56AM 35.1464 -107.6839 263° West 467 537 37,900  Level Albuquerque Center
01:57AM 35.1333 -107.8333 264° West 465 535 38,000  Climbing Albuquerque Center
01:58AM 35.1192 -107.9822 263° West 461 531 38,000  Level Albuquerque Center
01:59AM 35.1028 -108.1589 264° West 464 534 38,000  Level Albuquerque Center
02:00AM 35.0872 -108.3100 263° West 466 536 38,000  Level Albuquerque Center
02:01AM 35.0739 -108.4592 264° West 463 533 38,000 -60 Level Albuquerque Center
02:02AM 35.0561 -108.6339 263° West 462 532 37,900 -60 Descending Albuquerque Center
02:03AM 35.0411 -108.7819 263° West 460 529 37,900  Level Albuquerque Center
02:04AM 35.0256 -108.9289 263° West 456 525 38,000  Climbing Albuquerque Center
02:05AM 35.0078 -109.0972 263° West 450 518 38,000  Level Albuquerque Center
02:06AM 34.9922 -109.2433 263° West 450 518 38,000  Level Albuquerque Center
02:07AM 34.9767 -109.3889 263° West 451 519 38,000  Level Albuquerque Center
02:08AM 34.9611 -109.5369 263° West 457 526 38,000  Level Albuquerque Center
02:09AM 34.9428 -109.7075 263° West 456 525 38,000  Level Albuquerque Center
02:10AM 34.9264 -109.8581 262° West 463 533 38,000  Level Albuquerque Center
02:11AM 34.9106 -110.0064 263° West 463 533 38,000  Level Albuquerque Center
02:12AM 34.8906 -110.1792 262° West 461 531 38,000  Level Albuquerque Center
02:13AM 34.8733 -110.3275 262° West 460 529 38,000  Level Albuquerque Center
02:14AM 34.8556 -110.4744 262° West 459 528 38,000  Level Albuquerque Center
02:15AM 34.8381 -110.6197 262° West 456 525 38,000 -60 Level Albuquerque Center
02:16AM 34.8189 -110.7686 261° West 455 524 37,900 -60 Descending Albuquerque Center
02:17AM 34.8011 -110.9211 262° West 456 525 37,900  Level Albuquerque Center
02:18AM 34.7842 -111.0792 263° West 466 536 38,000  Climbing Albuquerque Center
02:19AM 34.7656 -111.2314 262° West 463 533 37,900 -60 Descending Albuquerque Center
02:20AM 34.7461 -111.3831 261° West 459 528 37,900  Level Albuquerque Center
02:21AM 34.7233 -111.5667 261° West 459 528 37,900  Level Albuquerque Center
02:22AM 34.7042 -111.7200 261° West 461 531 37,900  Level Albuquerque Center
02:23AM 34.6842 -111.8722 261° West 461 531 37,900  Level Albuquerque Center
02:24AM 34.6647 -112.0244 261° West 461 531 37,900  Level Albuquerque Center
02:25AM 34.6453 -112.1753 261° West 459 528 37,900  Level Albuquerque Center
02:26AM 34.6247 -112.3264 261° West 458 527 37,900  Level Albuquerque Center
02:27AM 34.6053 -112.4786 261° West 456 525 37,900  Level Albuquerque Center
02:28AM 34.5844 -112.6286 260° West 454 522 37,900  Level Albuquerque Center
02:29AM 34.5631 -112.7797 260° West 454 522 37,900  Level Albuquerque Center
02:30AM 34.5439 -112.9303 261° West 454 522 37,900  Level Albuquerque Center
02:31AM 34.5236 -113.0794 261° West 451 519 37,900  Level Albuquerque Center
02:32AM 34.5036 -113.2297 261° West 452 520 37,900  Level Albuquerque Center
02:33AM 34.4819 -113.3811 260° West 454 522 37,900  Level Albuquerque Center
02:34AM 34.4611 -113.5328 261° West 456 525 37,900  Level Albuquerque Center
02:35AM 34.4375 -113.6839 259° West 456 525 38,000  Climbing Albuquerque Center
02:36AM 34.4167 -113.8328 260° West 453 521 38,000 -60 Level Albuquerque Center
02:37AM 34.3939 -113.9869 260° West 454 522 37,900  Descending Albuquerque Center
02:38AM 34.3700 -114.1381 259° West 458 527 38,000  Climbing Albuquerque Center
02:39AM 34.3483 -114.2886 260° West 455 524 38,000 -60 Level Albuquerque Center
02:40AM 34.3264 -114.4367 260° West 453 521 37,900  Descending Albuquerque Center
02:41AM 34.3036 -114.5850 260° West 450 518 38,000  Climbing Albuquerque Center
02:43AM 34.2739 -114.7986 261° West 450 518 37,900 -60 Descending Los Angeles Center
02:44AM 34.2564 -114.9492 262° West 453 521 37,900  Level Los Angeles Center
02:45AM 34.2372 -115.0989 261° West 453 521 37,900  Level Los Angeles Center
02:46AM 34.2183 -115.2481 261° West 452 520 37,900  Level Los Angeles Center
02:47AM 34.1986 -115.3969 261° West 452 520 37,900  Level Los Angeles Center
02:48AM 34.1775 -115.5464 260° West 452 520 37,900  Level Los Angeles Center
02:49AM 34.1564 -115.6958 260° West 455 524 37,900 -300 Level Los Angeles Center
02:50AM 34.1367 -115.8436 261° West 450 518 37,300 -1,020 Descending Los Angeles Center
02:51AM 34.1172 -115.9908 261° West 447 514 35,900 -1,800 Descending Los Angeles Center
02:52AM 34.0969 -116.1408 261° West 454 522 33,700 -2,460 Descending Los Angeles Center
02:53AM 34.0750 -116.2925 260° West 462 532 31,000 -2,640 Descending Los Angeles Center
02:54AM 34.0547 -116.4450 261° West 464 534 28,300 -2,760 Descending Los Angeles Center
02:55AM 34.0275 -116.6278 260° West 465 535 25,000 -2,880 Descending Los Angeles Center
02:56AM 34.0061 -116.7744 260° West 453 521 22,100 -3,180 Descending Los Angeles Center
02:57AM 33.9833 -116.9333 260° West 430 495 18,700 -2,700 Descending Southern California TRACON
02:58AM 33.9667 -117.0667 261° West 425 489 17,100 -1,260 Descending Southern California TRACON
02:59AM 33.9500 -117.2333 263° West 426 490 16,100 -900 Descending Southern California TRACON
03:00AM 33.9333 -117.3333 259° West 413 475 15,500 -960 Descending Southern California TRACON
03:01AM 33.9333 -117.4667 270° West 414 476 14,500 -1,020 Descending Southern California TRACON
03:02AM 33.9333 -117.5833 270° West 422 486 13,600 -1,020 Descending Southern California TRACON
03:03AM 33.9500 -117.7167 279° West 407 468 12,600 -1,020 Descending Southern California TRACON
03:04AM 33.9667 -117.8500 279° West 385 443 11,500 -960 Descending Southern California TRACON
03:05AM 33.9833 -117.9833 279° West 377 434 10,600 -780 Descending Southern California TRACON
03:06AM 33.9667 -118.1000 260° West 378 435 10,000 -480 Descending Southern California TRACON
03:06AM 33.9708 -118.1583 275° West 373 429 9,900 -120 Descending Los Angeles Center
03:07AM 33.9844 -118.2639 279° West 322 371 9,900 -480 Level Los Angeles Center
03:08AM 33.9983 -118.3589 280° West 295 339 9,000 -840 Descending Los Angeles Center
03:09AM 34.0117 -118.4442 281° West 266 306 8,300 -1,140 Descending Los Angeles Center
03:10AM 34.0156 -118.5347 273° West 235 270 6,700 -1,320 Descending Los Angeles Center
03:11AM 34.0192 -118.6031 274° West 201 231 5,700 -1,200 Descending Los Angeles Center
03:12AM 33.9950 -118.6517 239° Southwest 205 236 4,300 -1,380 Descending Los Angeles Center